sensor_id;sensor_type;location;lat;lon;timestamp;temperature;humidity
7046;DHT22;3564;53.326;10.356;2023-05-09T00:00:49;17.30;60.00
7046;DHT22;3564;53.326;10.356;2023-05-09T00:03:15;17.30;60.60
7046;DHT22;3564;53.326;10.356;2023-05-09T00:05:40;17.30;60.30
7046;DHT22;3564;53.326;10.356;2023-05-09T00:08:06;17.20;60.20
7046;DHT22;3564;53.326;10.356;2023-05-09T00:10:32;17.20;60.10
7046;DHT22;3564;53.326;10.356;2023-05-09T00:12:57;17.20;60.60
7046;DHT22;3564;53.326;10.356;2023-05-09T00:15:24;17.20;61.10
7046;DHT22;3564;53.326;10.356;2023-05-09T00:17:50;17.20;60.70
7046;DHT22;3564;53.326;10.356;2023-05-09T00:20:16;17.10;60.20
7046;DHT22;3564;53.326;10.356;2023-05-09T00:22:42;17.10;60.80
7046;DHT22;3564;53.326;10.356;2023-05-09T00:25:08;17.10;60.90
7046;DHT22;3564;53.326;10.356;2023-05-09T00:27:35;17.10;61.30
7046;DHT22;3564;53.326;10.356;2023-05-09T00:30:02;17.10;61.00
7046;DHT22;3564;53.326;10.356;2023-05-09T00:32:28;17.10;61.40
7046;DHT22;3564;53.326;10.356;2023-05-09T00:34:54;17.00;61.50
7046;DHT22;3564;53.326;10.356;2023-05-09T00:37:19;17.00;61.80
7046;DHT22;3564;53.326;10.356;2023-05-09T00:39:49;17.00;61.50
7046;DHT22;3564;53.326;10.356;2023-05-09T00:42:15;16.90;62.00
7046;DHT22;3564;53.326;10.356;2023-05-09T00:44:41;16.90;61.70
7046;DHT22;3564;53.326;10.356;2023-05-09T00:47:06;16.80;61.90
7046;DHT22;3564;53.326;10.356;2023-05-09T00:49:32;16.80;61.70
7046;DHT22;3564;53.326;10.356;2023-05-09T00:51:58;16.80;61.90
7046;DHT22;3564;53.326;10.356;2023-05-09T00:54:25;16.70;61.70
7046;DHT22;3564;53.326;10.356;2023-05-09T00:56:51;16.70;61.90
7046;DHT22;3564;53.326;10.356;2023-05-09T00:59:16;16.60;62.30
7046;DHT22;3564;53.326;10.356;2023-05-09T01:01:43;16.60;62.60
7046;DHT22;3564;53.326;10.356;2023-05-09T01:04:11;16.60;62.70
7046;DHT22;3564;53.326;10.356;2023-05-09T01:09:55;16.50;62.20
7046;DHT22;3564;53.326;10.356;2023-05-09T01:12:36;16.40;62.60
7046;DHT22;3564;53.326;10.356;2023-05-09T01:17:53;16.30;62.90
7046;DHT22;3564;53.326;10.356;2023-05-09T01:26:05;16.20;63.40
7046;DHT22;3564;53.326;10.356;2023-05-09T01:31:22;16.10;63.90
7046;DHT22;3564;53.326;10.356;2023-05-09T01:33:55;16.10;64.10
7046;DHT22;3564;53.326;10.356;2023-05-09T01:36:20;16.00;64.20
7046;DHT22;3564;53.326;10.356;2023-05-09T01:38:49;16.00;64.40
7046;DHT22;3564;53.326;10.356;2023-05-09T01:41:16;16.00;64.40
7046;DHT22;3564;53.326;10.356;2023-05-09T01:43:45;16.00;64.30
7046;DHT22;3564;53.326;10.356;2023-05-09T01:46:12;15.90;64.40
7046;DHT22;3564;53.326;10.356;2023-05-09T01:48:39;15.90;64.60
7046;DHT22;3564;53.326;10.356;2023-05-09T01:51:07;15.90;64.80
7046;DHT22;3564;53.326;10.356;2023-05-09T01:53:34;15.90;65.00
7046;DHT22;3564;53.326;10.356;2023-05-09T01:56:02;15.80;64.90
7046;DHT22;3564;53.326;10.356;2023-05-09T01:58:31;15.80;64.80
7046;DHT22;3564;53.326;10.356;2023-05-09T02:00:59;15.70;64.80
7046;DHT22;3564;53.326;10.356;2023-05-09T02:03:26;15.70;65.10
7046;DHT22;3564;53.326;10.356;2023-05-09T02:05:55;15.70;65.00
7046;DHT22;3564;53.326;10.356;2023-05-09T02:08:21;15.70;65.00
7046;DHT22;3564;53.326;10.356;2023-05-09T02:10:48;15.60;65.10
7046;DHT22;3564;53.326;10.356;2023-05-09T02:13:14;15.60;65.10
7046;DHT22;3564;53.326;10.356;2023-05-09T02:15:39;15.60;65.20
7046;DHT22;3564;53.326;10.356;2023-05-09T02:18:06;15.60;65.40
7046;DHT22;3564;53.326;10.356;2023-05-09T02:20:32;15.60;65.60
7046;DHT22;3564;53.326;10.356;2023-05-09T02:23:00;15.60;65.80
7046;DHT22;3564;53.326;10.356;2023-05-09T02:25:26;15.50;66.10
7046;DHT22;3564;53.326;10.356;2023-05-09T02:27:54;15.40;65.90
7046;DHT22;3564;53.326;10.356;2023-05-09T02:30:23;15.40;66.00
7046;DHT22;3564;53.326;10.356;2023-05-09T02:32:55;15.30;66.30
7046;DHT22;3564;53.326;10.356;2023-05-09T02:35:36;15.30;66.90
7046;DHT22;3564;53.326;10.356;2023-05-09T02:38:04;15.30;66.20
7046;DHT22;3564;53.326;10.356;2023-05-09T02:40:30;15.30;66.60
7046;DHT22;3564;53.326;10.356;2023-05-09T02:42:58;15.30;66.50
7046;DHT22;3564;53.326;10.356;2023-05-09T02:45:24;15.20;66.80
7046;DHT22;3564;53.326;10.356;2023-05-09T02:47:50;15.20;66.60
7046;DHT22;3564;53.326;10.356;2023-05-09T02:50:15;15.10;67.00
7046;DHT22;3564;53.326;10.356;2023-05-09T02:52:41;15.10;67.00
7046;DHT22;3564;53.326;10.356;2023-05-09T02:55:07;15.00;67.30
7046;DHT22;3564;53.326;10.356;2023-05-09T02:57:33;14.90;67.20
7046;DHT22;3564;53.326;10.356;2023-05-09T02:59:58;14.90;67.70
7046;DHT22;3564;53.326;10.356;2023-05-09T03:02:24;14.80;67.60
7046;DHT22;3564;53.326;10.356;2023-05-09T03:04:50;14.80;67.70
7046;DHT22;3564;53.326;10.356;2023-05-09T03:07:16;14.70;67.70
7046;DHT22;3564;53.326;10.356;2023-05-09T03:09:41;14.70;67.80
7046;DHT22;3564;53.326;10.356;2023-05-09T03:12:07;14.70;67.90
7046;DHT22;3564;53.326;10.356;2023-05-09T03:14:32;14.60;68.20
7046;DHT22;3564;53.326;10.356;2023-05-09T03:16:58;14.60;68.30
7046;DHT22;3564;53.326;10.356;2023-05-09T03:19:23;14.50;68.40
7046;DHT22;3564;53.326;10.356;2023-05-09T03:21:49;14.40;68.50
7046;DHT22;3564;53.326;10.356;2023-05-09T03:24:15;14.40;69.00
7046;DHT22;3564;53.326;10.356;2023-05-09T03:26:41;14.30;69.50
7046;DHT22;3564;53.326;10.356;2023-05-09T03:29:06;14.30;69.30
7046;DHT22;3564;53.326;10.356;2023-05-09T03:31:32;14.20;69.20
7046;DHT22;3564;53.326;10.356;2023-05-09T03:33:57;14.10;69.70
7046;DHT22;3564;53.326;10.356;2023-05-09T03:36:23;14.10;69.90
7046;DHT22;3564;53.326;10.356;2023-05-09T03:38:49;14.10;70.00
7046;DHT22;3564;53.326;10.356;2023-05-09T03:41:16;14.10;69.80
7046;DHT22;3564;53.326;10.356;2023-05-09T03:43:42;14.00;70.10
7046;DHT22;3564;53.326;10.356;2023-05-09T03:46:07;14.00;70.00
7046;DHT22;3564;53.326;10.356;2023-05-09T03:48:33;14.00;70.40
7046;DHT22;3564;53.326;10.356;2023-05-09T03:50:59;14.00;70.50
7046;DHT22;3564;53.326;10.356;2023-05-09T03:53:25;13.90;70.30
7046;DHT22;3564;53.326;10.356;2023-05-09T03:55:50;14.00;70.40
7046;DHT22;3564;53.326;10.356;2023-05-09T03:58:16;13.90;70.70
7046;DHT22;3564;53.326;10.356;2023-05-09T04:00:43;14.00;70.70
7046;DHT22;3564;53.326;10.356;2023-05-09T04:03:11;14.00;70.90
7046;DHT22;3564;53.326;10.356;2023-05-09T04:05:36;14.00;71.20
7046;DHT22;3564;53.326;10.356;2023-05-09T04:08:03;14.00;71.60
7046;DHT22;3564;53.326;10.356;2023-05-09T04:10:29;13.90;71.40
7046;DHT22;3564;53.326;10.356;2023-05-09T04:12:55;14.00;71.70
7046;DHT22;3564;53.326;10.356;2023-05-09T04:15:21;14.00;71.90
7046;DHT22;3564;53.326;10.356;2023-05-09T04:17:46;14.00;72.00
7046;DHT22;3564;53.326;10.356;2023-05-09T04:20:12;14.00;72.10
7046;DHT22;3564;53.326;10.356;2023-05-09T04:22:41;14.00;72.30
7046;DHT22;3564;53.326;10.356;2023-05-09T04:25:06;14.00;72.70
7046;DHT22;3564;53.326;10.356;2023-05-09T04:27:36;14.00;72.60
7046;DHT22;3564;53.326;10.356;2023-05-09T04:30:02;14.10;72.50
7046;DHT22;3564;53.326;10.356;2023-05-09T04:32:28;14.10;72.60
7046;DHT22;3564;53.326;10.356;2023-05-09T04:34:54;14.10;72.60
7046;DHT22;3564;53.326;10.356;2023-05-09T04:37:19;14.10;72.70
7046;DHT22;3564;53.326;10.356;2023-05-09T04:39:45;14.20;72.80
7046;DHT22;3564;53.326;10.356;2023-05-09T04:42:10;14.20;73.00
7046;DHT22;3564;53.326;10.356;2023-05-09T04:44:36;14.20;72.90
7046;DHT22;3564;53.326;10.356;2023-05-09T04:47:01;14.20;73.00
7046;DHT22;3564;53.326;10.356;2023-05-09T04:49:27;14.20;72.70
7046;DHT22;3564;53.326;10.356;2023-05-09T04:51:53;14.20;73.10
7046;DHT22;3564;53.326;10.356;2023-05-09T04:54:19;14.30;73.20
7046;DHT22;3564;53.326;10.356;2023-05-09T04:56:44;14.30;73.10
7046;DHT22;3564;53.326;10.356;2023-05-09T04:59:10;14.30;73.10
7046;DHT22;3564;53.326;10.356;2023-05-09T05:01:35;14.40;73.40
7046;DHT22;3564;53.326;10.356;2023-05-09T05:04:01;14.40;72.90
7046;DHT22;3564;53.326;10.356;2023-05-09T05:06:26;14.50;73.10
7046;DHT22;3564;53.326;10.356;2023-05-09T05:08:52;14.50;73.80
7046;DHT22;3564;53.326;10.356;2023-05-09T05:11:17;14.50;73.60
7046;DHT22;3564;53.326;10.356;2023-05-09T05:13:43;14.60;73.50
7046;DHT22;3564;53.326;10.356;2023-05-09T05:16:09;14.70;73.60
7046;DHT22;3564;53.326;10.356;2023-05-09T05:18:35;14.70;73.00
7046;DHT22;3564;53.326;10.356;2023-05-09T05:21:00;14.70;72.60
7046;DHT22;3564;53.326;10.356;2023-05-09T05:23:26;14.80;72.60
7046;DHT22;3564;53.326;10.356;2023-05-09T05:25:51;14.90;73.10
7046;DHT22;3564;53.326;10.356;2023-05-09T05:28:18;14.90;73.00
7046;DHT22;3564;53.326;10.356;2023-05-09T05:30:43;14.90;72.90
7046;DHT22;3564;53.326;10.356;2023-05-09T05:33:10;15.00;73.00
7046;DHT22;3564;53.326;10.356;2023-05-09T05:35:36;15.00;72.80
7046;DHT22;3564;53.326;10.356;2023-05-09T05:38:01;15.10;72.70
7046;DHT22;3564;53.326;10.356;2023-05-09T05:40:27;15.10;72.70
7046;DHT22;3564;53.326;10.356;2023-05-09T05:42:52;15.20;72.80
7046;DHT22;3564;53.326;10.356;2023-05-09T05:45:19;15.20;72.40
7046;DHT22;3564;53.326;10.356;2023-05-09T05:47:45;15.20;72.30
7046;DHT22;3564;53.326;10.356;2023-05-09T05:50:10;15.30;72.40
7046;DHT22;3564;53.326;10.356;2023-05-09T05:52:40;15.30;72.90
7046;DHT22;3564;53.326;10.356;2023-05-09T05:55:06;15.30;73.00
7046;DHT22;3564;53.326;10.356;2023-05-09T05:57:32;15.40;72.90
7046;DHT22;3564;53.326;10.356;2023-05-09T05:59:59;15.40;73.10
7046;DHT22;3564;53.326;10.356;2023-05-09T06:02:25;15.50;73.40
7046;DHT22;3564;53.326;10.356;2023-05-09T06:04:51;15.50;73.80
7046;DHT22;3564;53.326;10.356;2023-05-09T06:07:16;15.50;73.40
7046;DHT22;3564;53.326;10.356;2023-05-09T06:09:42;15.60;73.00
7046;DHT22;3564;53.326;10.356;2023-05-09T06:12:10;15.60;72.80
7046;DHT22;3564;53.326;10.356;2023-05-09T06:14:36;15.60;73.10
7046;DHT22;3564;53.326;10.356;2023-05-09T06:17:01;15.70;73.10
7046;DHT22;3564;53.326;10.356;2023-05-09T06:19:27;15.70;72.90
7046;DHT22;3564;53.326;10.356;2023-05-09T06:21:52;15.80;72.80
7046;DHT22;3564;53.326;10.356;2023-05-09T06:24:18;15.80;73.00
7046;DHT22;3564;53.326;10.356;2023-05-09T06:26:43;15.90;72.90
7046;DHT22;3564;53.326;10.356;2023-05-09T06:29:09;15.90;73.00
7046;DHT22;3564;53.326;10.356;2023-05-09T06:31:35;15.90;72.80
7046;DHT22;3564;53.326;10.356;2023-05-09T06:34:05;16.00;72.70
7046;DHT22;3564;53.326;10.356;2023-05-09T06:36:31;16.00;72.70
7046;DHT22;3564;53.326;10.356;2023-05-09T06:38:57;16.10;73.30
7046;DHT22;3564;53.326;10.356;2023-05-09T06:41:23;16.10;73.20
7046;DHT22;3564;53.326;10.356;2023-05-09T06:43:48;16.10;73.30
7046;DHT22;3564;53.326;10.356;2023-05-09T06:46:14;16.20;72.80
7046;DHT22;3564;53.326;10.356;2023-05-09T06:48:40;16.20;72.80
7046;DHT22;3564;53.326;10.356;2023-05-09T06:51:05;16.20;72.60
7046;DHT22;3564;53.326;10.356;2023-05-09T06:53:31;16.30;72.60
7046;DHT22;3564;53.326;10.356;2023-05-09T06:55:56;16.30;73.10
7046;DHT22;3564;53.326;10.356;2023-05-09T06:58:22;16.40;73.30
7046;DHT22;3564;53.326;10.356;2023-05-09T07:00:47;16.50;73.50
7046;DHT22;3564;53.326;10.356;2023-05-09T07:03:13;16.50;72.60
7046;DHT22;3564;53.326;10.356;2023-05-09T07:05:40;16.60;72.80
7046;DHT22;3564;53.326;10.356;2023-05-09T07:08:06;16.70;72.90
7046;DHT22;3564;53.326;10.356;2023-05-09T07:10:31;16.80;72.60
7046;DHT22;3564;53.326;10.356;2023-05-09T07:12:57;16.80;72.60
7046;DHT22;3564;53.326;10.356;2023-05-09T07:15:23;16.90;72.50
7046;DHT22;3564;53.326;10.356;2023-05-09T07:17:49;16.90;72.40
7046;DHT22;3564;53.326;10.356;2023-05-09T07:20:14;17.00;72.50
7046;DHT22;3564;53.326;10.356;2023-05-09T07:22:40;17.10;73.10
7046;DHT22;3564;53.326;10.356;2023-05-09T07:25:06;17.20;72.90
7046;DHT22;3564;53.326;10.356;2023-05-09T07:27:33;17.20;72.50
7046;DHT22;3564;53.326;10.356;2023-05-09T07:29:58;17.30;72.50
7046;DHT22;3564;53.326;10.356;2023-05-09T07:32:24;17.30;72.20
7046;DHT22;3564;53.326;10.356;2023-05-09T07:34:51;17.40;72.30
7046;DHT22;3564;53.326;10.356;2023-05-09T07:37:17;17.50;72.20
7046;DHT22;3564;53.326;10.356;2023-05-09T07:39:42;17.60;72.20
7046;DHT22;3564;53.326;10.356;2023-05-09T07:42:08;17.60;72.00
7046;DHT22;3564;53.326;10.356;2023-05-09T07:44:33;17.70;72.10
7046;DHT22;3564;53.326;10.356;2023-05-09T07:46:59;17.80;71.90
7046;DHT22;3564;53.326;10.356;2023-05-09T07:49:30;17.80;71.60
7046;DHT22;3564;53.326;10.356;2023-05-09T07:51:56;17.90;71.70
7046;DHT22;3564;53.326;10.356;2023-05-09T07:54:21;18.00;72.10
7046;DHT22;3564;53.326;10.356;2023-05-09T07:56:47;18.10;72.00
7046;DHT22;3564;53.326;10.356;2023-05-09T07:59:12;18.10;71.90
7046;DHT22;3564;53.326;10.356;2023-05-09T08:01:38;18.20;72.30
7046;DHT22;3564;53.326;10.356;2023-05-09T08:04:03;18.30;71.80
7046;DHT22;3564;53.326;10.356;2023-05-09T08:06:33;18.40;71.80
7046;DHT22;3564;53.326;10.356;2023-05-09T08:08:59;18.50;71.70
7046;DHT22;3564;53.326;10.356;2023-05-09T08:11:24;18.50;71.80
7046;DHT22;3564;53.326;10.356;2023-05-09T08:13:50;18.60;71.40
7046;DHT22;3564;53.326;10.356;2023-05-09T08:16:16;18.70;71.50
7046;DHT22;3564;53.326;10.356;2023-05-09T08:18:42;18.80;72.10
7046;DHT22;3564;53.326;10.356;2023-05-09T08:21:09;18.80;72.70
7046;DHT22;3564;53.326;10.356;2023-05-09T08:23:34;18.90;72.20
7046;DHT22;3564;53.326;10.356;2023-05-09T08:26:00;19.00;71.60
7046;DHT22;3564;53.326;10.356;2023-05-09T08:28:26;19.10;70.70
7046;DHT22;3564;53.326;10.356;2023-05-09T08:30:53;19.10;70.50
7046;DHT22;3564;53.326;10.356;2023-05-09T08:33:19;19.20;70.50
7046;DHT22;3564;53.326;10.356;2023-05-09T08:35:49;19.30;70.60
7046;DHT22;3564;53.326;10.356;2023-05-09T08:38:14;19.40;71.00
7046;DHT22;3564;53.326;10.356;2023-05-09T08:40:40;19.50;71.00
7046;DHT22;3564;53.326;10.356;2023-05-09T08:43:06;19.50;70.40
7046;DHT22;3564;53.326;10.356;2023-05-09T08:45:34;19.60;70.10
7046;DHT22;3564;53.326;10.356;2023-05-09T08:48:04;19.70;70.30
7046;DHT22;3564;53.326;10.356;2023-05-09T08:50:31;19.70;69.90
7046;DHT22;3564;53.326;10.356;2023-05-09T08:52:57;19.90;69.80
7046;DHT22;3564;53.326;10.356;2023-05-09T08:55:23;20.00;69.00
7046;DHT22;3564;53.326;10.356;2023-05-09T08:57:50;20.00;69.50
7046;DHT22;3564;53.326;10.356;2023-05-09T09:00:16;20.10;70.00
7046;DHT22;3564;53.326;10.356;2023-05-09T09:02:45;20.20;68.80
7046;DHT22;3564;53.326;10.356;2023-05-09T09:05:10;20.30;68.90
7046;DHT22;3564;53.326;10.356;2023-05-09T09:07:37;20.40;68.70
7046;DHT22;3564;53.326;10.356;2023-05-09T09:10:07;20.50;68.40
7046;DHT22;3564;53.326;10.356;2023-05-09T09:12:33;20.60;68.00
7046;DHT22;3564;53.326;10.356;2023-05-09T09:15:03;20.70;67.70
7046;DHT22;3564;53.326;10.356;2023-05-09T09:17:31;20.80;67.80
7046;DHT22;3564;53.326;10.356;2023-05-09T09:19:59;20.90;67.90
7046;DHT22;3564;53.326;10.356;2023-05-09T09:22:30;20.90;68.20
7046;DHT22;3564;53.326;10.356;2023-05-09T09:24:59;21.00;67.60
7046;DHT22;3564;53.326;10.356;2023-05-09T09:27:25;21.10;67.60
7046;DHT22;3564;53.326;10.356;2023-05-09T09:29:51;21.20;67.40
7046;DHT22;3564;53.326;10.356;2023-05-09T09:32:17;21.30;66.90
7046;DHT22;3564;53.326;10.356;2023-05-09T09:34:48;21.40;66.50
7046;DHT22;3564;53.326;10.356;2023-05-09T09:37:23;21.40;66.30
7046;DHT22;3564;53.326;10.356;2023-05-09T09:39:55;21.50;66.30
7046;DHT22;3564;53.326;10.356;2023-05-09T09:42:21;21.60;66.40
7046;DHT22;3564;53.326;10.356;2023-05-09T09:45:08;21.70;65.40
7046;DHT22;3564;53.326;10.356;2023-05-09T09:47:34;21.80;65.50
7046;DHT22;3564;53.326;10.356;2023-05-09T09:50:09;21.90;65.30
7046;DHT22;3564;53.326;10.356;2023-05-09T09:52:50;21.90;64.60
7046;DHT22;3564;53.326;10.356;2023-05-09T09:55:17;22.00;64.00
7046;DHT22;3564;53.326;10.356;2023-05-09T09:57:44;22.10;63.60
7046;DHT22;3564;53.326;10.356;2023-05-09T10:00:15;22.10;64.00
7046;DHT22;3564;53.326;10.356;2023-05-09T10:02:56;22.30;64.70
7046;DHT22;3564;53.326;10.356;2023-05-09T10:05:23;22.30;63.50
7046;DHT22;3564;53.326;10.356;2023-05-09T10:08:10;22.40;62.70
7046;DHT22;3564;53.326;10.356;2023-05-09T10:10:36;22.50;63.50
7046;DHT22;3564;53.326;10.356;2023-05-09T10:13:08;22.50;64.10
7046;DHT22;3564;53.326;10.356;2023-05-09T10:15:49;22.50;63.90
7046;DHT22;3564;53.326;10.356;2023-05-09T10:18:16;22.60;65.10
7046;DHT22;3564;53.326;10.356;2023-05-09T10:20:44;22.70;64.30
7046;DHT22;3564;53.326;10.356;2023-05-09T10:23:12;22.70;64.10
7046;DHT22;3564;53.326;10.356;2023-05-09T10:25:46;22.80;63.70
7046;DHT22;3564;53.326;10.356;2023-05-09T10:28:16;22.90;64.00
7046;DHT22;3564;53.326;10.356;2023-05-09T10:33:47;23.10;63.90
7046;DHT22;3564;53.326;10.356;2023-05-09T10:36:16;23.20;63.70
7046;DHT22;3564;53.326;10.356;2023-05-09T10:38:43;23.20;64.20
7046;DHT22;3564;53.326;10.356;2023-05-09T10:41:10;23.30;64.30
7046;DHT22;3564;53.326;10.356;2023-05-09T10:43:36;23.30;62.80
7046;DHT22;3564;53.326;10.356;2023-05-09T10:46:03;23.40;62.40
7046;DHT22;3564;53.326;10.356;2023-05-09T10:48:31;23.50;62.30
7046;DHT22;3564;53.326;10.356;2023-05-09T10:50:58;23.60;63.50
7046;DHT22;3564;53.326;10.356;2023-05-09T10:53:40;23.60;62.40
7046;DHT22;3564;53.326;10.356;2023-05-09T10:56:24;23.70;62.20
7046;DHT22;3564;53.326;10.356;2023-05-09T10:58:51;23.80;61.40
7046;DHT22;3564;53.326;10.356;2023-05-09T11:01:31;23.80;61.40
7046;DHT22;3564;53.326;10.356;2023-05-09T11:04:15;23.90;61.90
7046;DHT22;3564;53.326;10.356;2023-05-09T11:06:51;23.90;62.40
7046;DHT22;3564;53.326;10.356;2023-05-09T11:09:31;24.00;63.90
7046;DHT22;3564;53.326;10.356;2023-05-09T11:12:09;24.10;63.70
7046;DHT22;3564;53.326;10.356;2023-05-09T11:14:47;24.20;63.00
7046;DHT22;3564;53.326;10.356;2023-05-09T11:17:15;24.20;62.60
7046;DHT22;3564;53.326;10.356;2023-05-09T11:22:28;24.30;62.60
7046;DHT22;3564;53.326;10.356;2023-05-09T11:25:15;24.40;62.40
7046;DHT22;3564;53.326;10.356;2023-05-09T11:27:46;24.40;62.90
7046;DHT22;3564;53.326;10.356;2023-05-09T11:30:17;24.50;61.20
7046;DHT22;3564;53.326;10.356;2023-05-09T11:32:51;24.50;61.10
7046;DHT22;3564;53.326;10.356;2023-05-09T11:35:23;24.60;62.90
7046;DHT22;3564;53.326;10.356;2023-05-09T11:38:06;24.60;62.60
7046;DHT22;3564;53.326;10.356;2023-05-09T11:40:33;24.70;62.10
7046;DHT22;3564;53.326;10.356;2023-05-09T11:43:06;24.80;61.10
7046;DHT22;3564;53.326;10.356;2023-05-09T11:45:32;24.80;61.20
7046;DHT22;3564;53.326;10.356;2023-05-09T11:47:59;24.80;62.20
7046;DHT22;3564;53.326;10.356;2023-05-09T11:50:28;24.80;61.80
7046;DHT22;3564;53.326;10.356;2023-05-09T11:52:54;24.90;61.90
7046;DHT22;3564;53.326;10.356;2023-05-09T11:55:20;24.90;62.30
7046;DHT22;3564;53.326;10.356;2023-05-09T11:57:55;25.00;61.60
7046;DHT22;3564;53.326;10.356;2023-05-09T12:00:24;25.00;60.20
7046;DHT22;3564;53.326;10.356;2023-05-09T12:02:51;25.00;59.50
7046;DHT22;3564;53.326;10.356;2023-05-09T12:05:19;25.10;59.10
7046;DHT22;3564;53.326;10.356;2023-05-09T12:07:46;25.10;59.50
7046;DHT22;3564;53.326;10.356;2023-05-09T12:10:19;25.10;59.10
7046;DHT22;3564;53.326;10.356;2023-05-09T12:12:48;25.10;58.70
7046;DHT22;3564;53.326;10.356;2023-05-09T12:15:14;25.10;59.80
7046;DHT22;3564;53.326;10.356;2023-05-09T12:17:41;25.10;59.60
7046;DHT22;3564;53.326;10.356;2023-05-09T12:20:07;25.10;59.60
7046;DHT22;3564;53.326;10.356;2023-05-09T12:22:33;25.10;59.20
7046;DHT22;3564;53.326;10.356;2023-05-09T12:25:00;25.10;59.20
7046;DHT22;3564;53.326;10.356;2023-05-09T12:27:30;25.10;59.90
7046;DHT22;3564;53.326;10.356;2023-05-09T12:29:59;25.20;59.00
7046;DHT22;3564;53.326;10.356;2023-05-09T12:32:27;25.20;58.60
7046;DHT22;3564;53.326;10.356;2023-05-09T12:34:57;25.20;58.90
7046;DHT22;3564;53.326;10.356;2023-05-09T12:37:23;25.20;59.40
7046;DHT22;3564;53.326;10.356;2023-05-09T12:42:34;25.20;59.90
7046;DHT22;3564;53.326;10.356;2023-05-09T12:45:01;25.20;59.50
7046;DHT22;3564;53.326;10.356;2023-05-09T12:47:30;25.20;59.40
7046;DHT22;3564;53.326;10.356;2023-05-09T12:50:01;25.20;59.40
7046;DHT22;3564;53.326;10.356;2023-05-09T12:52:38;25.20;59.70
7046;DHT22;3564;53.326;10.356;2023-05-09T12:55:11;25.20;58.70
7046;DHT22;3564;53.326;10.356;2023-05-09T12:57:38;25.20;58.70
7046;DHT22;3564;53.326;10.356;2023-05-09T13:00:06;25.20;58.90
7046;DHT22;3564;53.326;10.356;2023-05-09T13:02:36;25.20;59.50
7046;DHT22;3564;53.326;10.356;2023-05-09T13:05:08;25.20;58.80
7046;DHT22;3564;53.326;10.356;2023-05-09T13:10:16;25.20;59.10
7046;DHT22;3564;53.326;10.356;2023-05-09T13:12:50;25.30;59.70
7046;DHT22;3564;53.326;10.356;2023-05-09T13:15:23;25.30;58.70
7046;DHT22;3564;53.326;10.356;2023-05-09T13:17:52;25.30;58.80
7046;DHT22;3564;53.326;10.356;2023-05-09T13:20:18;25.30;59.80
7046;DHT22;3564;53.326;10.356;2023-05-09T13:22:44;25.30;59.10
7046;DHT22;3564;53.326;10.356;2023-05-09T13:25:11;25.40;59.50
7046;DHT22;3564;53.326;10.356;2023-05-09T13:27:37;25.50;60.00
7046;DHT22;3564;53.326;10.356;2023-05-09T13:30:04;25.50;59.20
7046;DHT22;3564;53.326;10.356;2023-05-09T13:32:33;25.60;58.30
7046;DHT22;3564;53.326;10.356;2023-05-09T13:34:59;25.60;58.20
7046;DHT22;3564;53.326;10.356;2023-05-09T13:37:25;25.70;58.70
7046;DHT22;3564;53.326;10.356;2023-05-09T13:39:53;25.70;58.00
7046;DHT22;3564;53.326;10.356;2023-05-09T13:42:22;25.70;58.10
7046;DHT22;3564;53.326;10.356;2023-05-09T13:44:48;25.80;58.40
7046;DHT22;3564;53.326;10.356;2023-05-09T13:47:13;25.80;57.80
7046;DHT22;3564;53.326;10.356;2023-05-09T13:49:39;25.90;58.90
7046;DHT22;3564;53.326;10.356;2023-05-09T13:52:05;25.90;57.40
7046;DHT22;3564;53.326;10.356;2023-05-09T13:54:31;26.00;57.70
7046;DHT22;3564;53.326;10.356;2023-05-09T13:57:03;26.10;58.40
7046;DHT22;3564;53.326;10.356;2023-05-09T13:59:31;26.10;58.00
7046;DHT22;3564;53.326;10.356;2023-05-09T14:01:57;26.10;59.60
7046;DHT22;3564;53.326;10.356;2023-05-09T14:04:25;26.20;59.10
7046;DHT22;3564;53.326;10.356;2023-05-09T14:06:51;26.30;58.90
7046;DHT22;3564;53.326;10.356;2023-05-09T14:09:17;26.40;58.40
7046;DHT22;3564;53.326;10.356;2023-05-09T14:11:42;26.40;58.20
7046;DHT22;3564;53.326;10.356;2023-05-09T14:14:08;26.50;57.60
7046;DHT22;3564;53.326;10.356;2023-05-09T14:16:35;26.50;58.00
7046;DHT22;3564;53.326;10.356;2023-05-09T14:19:00;26.60;57.40
7046;DHT22;3564;53.326;10.356;2023-05-09T14:21:26;26.60;57.30
7046;DHT22;3564;53.326;10.356;2023-05-09T14:23:51;26.70;56.90
7046;DHT22;3564;53.326;10.356;2023-05-09T14:26:17;26.70;56.30
7046;DHT22;3564;53.326;10.356;2023-05-09T14:28:43;26.70;56.10
7046;DHT22;3564;53.326;10.356;2023-05-09T14:31:09;26.70;56.20
7046;DHT22;3564;53.326;10.356;2023-05-09T14:33:36;26.90;56.50
7046;DHT22;3564;53.326;10.356;2023-05-09T14:36:04;26.90;56.60
7046;DHT22;3564;53.326;10.356;2023-05-09T14:38:31;26.90;56.20
7046;DHT22;3564;53.326;10.356;2023-05-09T14:40:57;27.00;56.00
7046;DHT22;3564;53.326;10.356;2023-05-09T14:43:23;27.00;55.90
7046;DHT22;3564;53.326;10.356;2023-05-09T14:45:49;27.10;55.70
7046;DHT22;3564;53.326;10.356;2023-05-09T14:48:15;27.00;55.50
7046;DHT22;3564;53.326;10.356;2023-05-09T14:50:40;27.10;55.20
7046;DHT22;3564;53.326;10.356;2023-05-09T14:53:06;27.10;55.80
7046;DHT22;3564;53.326;10.356;2023-05-09T14:55:32;27.20;54.20
7046;DHT22;3564;53.326;10.356;2023-05-09T14:57:57;27.20;54.90
7046;DHT22;3564;53.326;10.356;2023-05-09T15:00:23;27.40;54.40
7046;DHT22;3564;53.326;10.356;2023-05-09T15:02:50;27.50;55.30
7046;DHT22;3564;53.326;10.356;2023-05-09T15:05:15;27.60;55.50
7046;DHT22;3564;53.326;10.356;2023-05-09T15:07:41;27.60;54.50
7046;DHT22;3564;53.326;10.356;2023-05-09T15:10:08;27.70;53.20
7046;DHT22;3564;53.326;10.356;2023-05-09T15:12:34;27.80;54.20
7046;DHT22;3564;53.326;10.356;2023-05-09T15:15:19;27.90;54.00
7046;DHT22;3564;53.326;10.356;2023-05-09T15:17:45;27.90;52.70
7046;DHT22;3564;53.326;10.356;2023-05-09T15:20:12;27.90;53.00
7046;DHT22;3564;53.326;10.356;2023-05-09T15:22:40;27.90;53.50
7046;DHT22;3564;53.326;10.356;2023-05-09T15:25:05;28.00;53.80
7046;DHT22;3564;53.326;10.356;2023-05-09T15:27:31;28.10;52.70
7046;DHT22;3564;53.326;10.356;2023-05-09T15:29:57;28.10;52.20
7046;DHT22;3564;53.326;10.356;2023-05-09T15:32:23;28.10;51.60
7046;DHT22;3564;53.326;10.356;2023-05-09T15:34:48;28.20;52.80
7046;DHT22;3564;53.326;10.356;2023-05-09T15:37:14;28.10;51.60
7046;DHT22;3564;53.326;10.356;2023-05-09T15:39:39;28.20;51.70
7046;DHT22;3564;53.326;10.356;2023-05-09T15:42:10;28.20;51.90
7046;DHT22;3564;53.326;10.356;2023-05-09T15:44:38;28.20;52.80
7046;DHT22;3564;53.326;10.356;2023-05-09T15:47:03;28.30;52.20
7046;DHT22;3564;53.326;10.356;2023-05-09T15:49:29;28.30;51.70
7046;DHT22;3564;53.326;10.356;2023-05-09T15:51:55;28.40;52.90
7046;DHT22;3564;53.326;10.356;2023-05-09T15:54:20;28.60;51.80
7046;DHT22;3564;53.326;10.356;2023-05-09T15:56:47;28.80;50.00
7046;DHT22;3564;53.326;10.356;2023-05-09T15:59:13;29.00;49.40
7046;DHT22;3564;53.326;10.356;2023-05-09T16:01:38;29.40;48.80
7046;DHT22;3564;53.326;10.356;2023-05-09T16:04:04;30.00;49.30
7046;DHT22;3564;53.326;10.356;2023-05-09T16:06:30;30.70;47.50
7046;DHT22;3564;53.326;10.356;2023-05-09T16:08:57;31.30;48.60
7046;DHT22;3564;53.326;10.356;2023-05-09T16:11:22;31.90;47.40